Time;durP1;ratioP1;P1;durP2;ratioP2;P2;SDS_P1;SDS_P2;PMS_P1;PMS_P2;Temp;Humidity;BMP_temperature;BMP_pressure;BME280_temperature;BME280_humidity;BME280_pressure;Samples;Min_cycle;Max_cycle;Signal;HPM_P1;HPM_P2
2021/11/09 00:00:41;;;;;;;15.60;10.33;;;6.00;99.90;;;;;;5053210;28;20175;-65
2021/11/09 00:03:09;;;;;;;11.80;10.60;;;5.90;99.90;;;;;;5053611;28;20174;-65
2021/11/09 00:05:42;;;;;;;11.60;10.53;;;5.90;99.90;;;;;;5053231;28;20228;-64
2021/11/09 00:08:13;;;;;;;9.93;9.17;;;5.80;99.90;;;;;;5053437;28;20191;-65
2021/11/09 00:10:39;;;;;;;15.07;9.83;;;5.70;99.90;;;;;;5053314;28;20174;-65
2021/11/09 00:13:04;;;;;;;11.30;10.37;;;5.60;99.90;;;;;;5053159;28;20179;-65
2021/11/09 00:15:32;;;;;;;11.43;10.23;;;5.60;99.90;;;;;;5053515;28;20174;-64
2021/11/09 00:18:01;;;;;;;12.10;9.33;;;5.50;99.90;;;;;;5052867;28;20210;-66
2021/11/09 00:20:29;;;;;;;12.70;10.33;;;5.50;99.90;;;;;;5053039;28;20167;-65
2021/11/09 00:22:55;;;;;;;13.63;9.87;;;5.40;99.90;;;;;;5053116;28;20178;-65
2021/11/09 00:25:23;;;;;;;12.60;9.30;;;5.30;99.90;;;;;;5053138;28;20533;-64
2021/11/09 00:27:49;;;;;;;10.67;9.67;;;5.20;99.90;;;;;;5052798;28;20194;-65
2021/11/09 00:30:17;;;;;;;13.00;9.97;;;5.20;99.90;;;;;;5052658;28;20175;-65
2021/11/09 00:32:43;;;;;;;12.57;10.07;;;5.20;99.90;;;;;;5052971;28;20189;-65
2021/11/09 00:35:11;;;;;;;10.83;9.83;;;5.20;99.90;;;;;;5053072;28;20570;-65
2021/11/09 00:37:37;;;;;;;11.27;10.37;;;5.20;99.90;;;;;;5052546;28;20207;-65
2021/11/09 00:40:04;;;;;;;10.60;9.80;;;5.10;99.90;;;;;;5052704;28;20174;-65
2021/11/09 00:42:30;;;;;;;18.13;11.07;;;5.10;99.90;;;;;;5052664;28;20178;-65
2021/11/09 00:44:56;;;;;;;12.13;10.60;;;5.00;99.90;;;;;;5052811;28;20171;-65
2021/11/09 00:47:22;;;;;;;11.27;10.20;;;5.00;99.90;;;;;;5052447;28;20214;-64
2021/11/09 00:49:48;;;;;;;13.17;11.00;;;4.90;99.90;;;;;;5051133;28;20671;-65
2021/11/09 00:52:14;;;;;;;10.83;10.03;;;4.90;99.90;;;;;;5052300;28;20189;-65
2021/11/09 00:54:40;;;;;;;15.80;10.80;;;4.90;99.90;;;;;;5052688;28;20252;-65
2021/11/09 00:57:06;;;;;;;11.13;10.17;;;4.90;99.90;;;;;;5051673;28;20238;-65
2021/11/09 00:59:32;;;;;;;15.50;10.67;;;4.80;99.90;;;;;;5052372;28;20174;-66
2021/11/09 01:01:58;;;;;;;14.77;10.13;;;4.80;99.90;;;;;;5052154;28;20181;-65
2021/11/09 01:04:24;;;;;;;14.23;10.73;;;4.80;99.90;;;;;;5051513;28;20190;-65
2021/11/09 01:06:50;;;;;;;10.43;9.67;;;4.80;99.90;;;;;;5052124;28;20266;-65
2021/11/09 01:09:16;;;;;;;11.50;10.57;;;4.80;99.90;;;;;;5052099;28;20262;-66
2021/11/09 01:11:41;;;;;;;10.97;9.90;;;4.70;99.90;;;;;;5052026;28;20579;-64
2021/11/09 01:14:08;;;;;;;13.73;10.83;;;4.60;99.90;;;;;;5052069;28;20415;-66
2021/11/09 01:16:35;;;;;;;16.63;10.80;;;4.60;99.90;;;;;;5051952;28;20210;-64
2021/11/09 01:19:04;;;;;;;14.47;11.43;;;4.50;99.90;;;;;;5051866;28;20167;-64
2021/11/09 01:21:31;;;;;;;12.57;11.17;;;4.50;99.90;;;;;;5051887;28;20175;-65
2021/11/09 01:23:57;;;;;;;11.13;10.23;;;4.50;99.90;;;;;;5052081;28;20166;-65
2021/11/09 01:26:24;;;;;;;10.83;9.70;;;4.40;99.90;;;;;;5051790;28;20277;-64
2021/11/09 01:28:52;;;;;;;10.17;9.33;;;4.40;99.90;;;;;;5051853;28;20237;-66
2021/11/09 01:31:18;;;;;;;11.57;10.53;;;4.30;99.90;;;;;;5051470;28;20177;-64
2021/11/09 01:33:44;;;;;;;11.13;9.93;;;4.30;99.90;;;;;;5051955;28;20202;-64
2021/11/09 01:36:11;;;;;;;15.33;10.90;;;4.20;99.90;;;;;;5051408;28;20226;-64
2021/11/09 01:38:37;;;;;;;12.63;9.97;;;4.30;99.90;;;;;;5051779;28;20702;-65
2021/11/09 01:41:05;;;;;;;11.83;10.83;;;4.30;99.90;;;;;;5051180;28;20258;-65
2021/11/09 01:43:32;;;;;;;12.03;10.90;;;4.30;99.90;;;;;;5051995;28;20190;-65
2021/11/09 01:45:58;;;;;;;12.27;10.57;;;4.20;99.90;;;;;;5051817;28;20321;-63
2021/11/09 01:48:25;;;;;;;12.70;9.83;;;4.20;99.90;;;;;;5051237;28;20199;-64
2021/11/09 01:50:54;;;;;;;12.43;10.20;;;4.10;99.90;;;;;;5051499;28;20211;-64
2021/11/09 01:53:20;;;;;;;11.00;9.90;;;4.00;99.90;;;;;;5051400;28;20170;-64
2021/11/09 01:55:47;;;;;;;14.50;10.40;;;4.00;99.90;;;;;;5051374;28;20206;-65
2021/11/09 01:58:14;;;;;;;10.93;9.80;;;4.00;99.90;;;;;;5051145;28;20825;-64
2021/11/09 02:01:03;;;;;;;12.17;9.93;;;3.90;99.90;;;;;;5051052;28;20232;-65
2021/11/09 02:03:29;;;;;;;16.90;10.97;;;3.90;99.90;;;;;;5051565;28;20182;-64
2021/11/09 02:05:55;;;;;;;11.07;10.07;;;3.90;99.90;;;;;;5051167;28;20217;-64
2021/11/09 02:08:24;;;;;;;12.77;10.60;;;4.00;99.90;;;;;;5051465;28;20218;-65
2021/11/09 02:10:51;;;;;;;10.77;9.97;;;4.00;99.90;;;;;;5050823;28;20186;-64
2021/11/09 02:13:18;;;;;;;15.77;10.53;;;4.00;99.90;;;;;;5051308;28;20163;-66
2021/11/09 02:15:44;;;;;;;15.60;9.90;;;3.90;99.90;;;;;;5051123;28;20186;-65
2021/11/09 02:18:13;;;;;;;11.70;10.80;;;3.90;99.90;;;;;;5051041;28;20206;-66
2021/11/09 02:20:40;;;;;;;11.27;10.13;;;3.90;99.90;;;;;;5050835;28;20257;-65
2021/11/09 02:23:06;;;;;;;10.87;9.40;;;3.90;99.90;;;;;;5050969;28;20658;-65
2021/11/09 02:25:33;;;;;;;11.30;10.20;;;3.90;99.90;;;;;;5051267;28;20186;-65
2021/11/09 02:28:01;;;;;;;11.50;10.60;;;3.90;99.90;;;;;;5050807;28;20190;-64
2021/11/09 02:30:28;;;;;;;10.90;10.03;;;4.00;99.90;;;;;;5050793;28;20167;-62
2021/11/09 02:32:56;;;;;;;14.43;9.77;;;4.10;99.90;;;;;;5051143;28;20539;-64
2021/11/09 02:35:23;;;;;;;12.80;9.67;;;4.20;99.90;;;;;;5051055;28;20175;-65
2021/11/09 02:37:54;;;;;;;11.17;9.97;;;4.20;99.90;;;;;;5051011;28;20206;-64
2021/11/09 02:40:20;;;;;;;14.40;10.83;;;4.20;99.90;;;;;;5050401;28;20198;-64
2021/11/09 02:42:50;;;;;;;11.47;10.13;;;4.20;99.90;;;;;;5051154;28;20291;-66
2021/11/09 02:45:24;;;;;;;12.13;11.20;;;4.20;99.90;;;;;;5050814;28;20187;-64
2021/11/09 02:48:03;;;;;;;10.87;9.83;;;4.10;99.90;;;;;;5049915;28;20193;-65
2021/11/09 02:50:36;;;;;;;11.87;9.87;;;4.10;99.90;;;;;;5050666;28;20312;-65
2021/11/09 02:56:05;;;;;;;11.10;10.10;;;4.10;99.90;;;;;;5034759;28;20217;-64
2021/11/09 03:09:06;;;;;;;10.67;9.57;;;3.80;99.90;;;;;;5050758;28;20195;-64
2021/11/09 03:11:33;;;;;;;11.70;9.47;;;3.70;99.90;;;;;;5050723;28;20183;-65
2021/11/09 03:14:00;;;;;;;11.87;9.73;;;3.70;99.90;;;;;;5050852;28;20179;-65
2021/11/09 03:16:31;;;;;;;10.00;9.00;;;3.60;99.90;;;;;;5050360;28;20202;-64
2021/11/09 03:46:37;;;;;;;10.23;9.53;;;3.60;99.90;;;;;;5054164;28;20187;-64
2021/11/09 03:49:05;;;;;;;11.83;8.87;;;3.70;99.90;;;;;;5053413;28;20366;-65
2021/11/09 03:51:31;;;;;;;12.00;9.57;;;3.70;99.90;;;;;;5053816;28;20182;-65
2021/11/09 03:54:03;;;;;;;11.17;10.17;;;3.70;99.90;;;;;;5053598;28;20182;-64
2021/11/09 03:56:38;;;;;;;10.80;9.80;;;3.80;99.90;;;;;;5053651;28;20206;-65
2021/11/09 03:59:09;;;;;;;14.93;10.47;;;3.80;99.90;;;;;;5053746;28;20179;-66
2021/11/09 04:01:43;;;;;;;11.83;10.13;;;3.70;99.90;;;;;;5053646;28;20179;-67
2021/11/09 04:06:45;;;;;;;11.10;10.20;;;3.80;99.90;;;;;;5053605;28;20519;-67
2021/11/09 04:09:26;;;;;;;10.03;9.23;;;3.80;99.90;;;;;;5052927;28;20187;-67
2021/11/09 04:20:17;;;;;;;10.67;9.80;;;3.70;99.90;;;;;;5052479;28;20185;-67
2021/11/09 04:30:49;;;;;;;9.93;9.27;;;3.60;99.90;;;;;;5033035;28;20186;-67
2021/11/09 04:50:26;;;;;;;14.00;9.23;;;3.40;99.90;;;;;;5052266;28;20666;-67
2021/11/09 05:10:48;;;;;;;13.60;9.57;;;3.20;99.90;;;;;;5052130;28;20518;-67
2021/11/09 05:13:14;;;;;;;10.43;9.30;;;3.10;99.90;;;;;;5051949;28;20187;-67
2021/11/09 05:15:40;;;;;;;10.87;9.90;;;3.10;99.90;;;;;;5052502;28;20179;-68
2021/11/09 05:18:06;;;;;;;11.17;10.23;;;3.10;99.90;;;;;;5051948;28;20214;-67
2021/11/09 05:20:32;;;;;;;12.43;10.83;;;3.10;99.90;;;;;;5051823;28;20182;-67
2021/11/09 05:22:58;;;;;;;11.37;10.30;;;3.10;99.90;;;;;;5051918;28;20596;-66
2021/11/09 05:25:24;;;;;;;10.73;9.97;;;3.10;99.90;;;;;;5052394;28;20178;-67
2021/11/09 05:27:51;;;;;;;12.27;9.60;;;3.10;99.90;;;;;;5051860;28;20198;-67
2021/11/09 05:30:17;;;;;;;10.13;9.23;;;3.20;99.90;;;;;;5051903;28;20261;-66
2021/11/09 05:32:44;;;;;;;12.20;11.03;;;3.30;99.90;;;;;;5051701;28;20273;-65
2021/11/09 05:35:12;;;;;;;10.90;10.03;;;3.30;99.90;;;;;;5051849;28;20174;-67
2021/11/09 05:37:47;;;;;;;12.03;10.97;;;3.30;99.90;;;;;;5051545;28;20265;-65
2021/11/09 05:40:13;;;;;;;13.93;12.63;;;3.40;99.90;;;;;;5051664;28;20488;-64
2021/11/09 05:42:39;;;;;;;15.43;12.60;;;3.40;99.90;;;;;;5051949;28;20627;-64
2021/11/09 05:45:08;;;;;;;12.30;11.30;;;3.40;99.90;;;;;;5051454;28;20261;-66
2021/11/09 05:47:34;;;;;;;12.80;11.43;;;3.40;99.90;;;;;;5051721;28;20241;-64
2021/11/09 05:50:00;;;;;;;12.40;10.67;;;3.40;99.90;;;;;;5050819;28;20167;-64
2021/11/09 05:52:26;;;;;;;11.17;10.13;;;3.40;99.90;;;;;;5051751;28;20198;-64
2021/11/09 05:54:51;;;;;;;11.67;10.07;;;3.40;99.90;;;;;;5051795;28;20175;-65
2021/11/09 05:57:17;;;;;;;14.37;12.33;;;3.40;99.90;;;;;;5051040;28;20210;-66
2021/11/09 05:59:43;;;;;;;11.97;10.77;;;3.40;99.90;;;;;;5051420;28;20179;-64
2021/11/09 06:02:09;;;;;;;13.40;10.70;;;3.40;99.90;;;;;;5051221;28;20182;-64
2021/11/09 06:04:34;;;;;;;13.27;12.00;;;3.40;99.90;;;;;;5051393;28;20178;-66
2021/11/09 06:07:01;;;;;;;12.20;11.07;;;3.40;99.90;;;;;;5051518;28;20254;-66
2021/11/09 06:09:26;;;;;;;12.67;10.33;;;3.40;99.90;;;;;;5051626;28;20179;-67
2021/11/09 06:11:52;;;;;;;10.83;10.13;;;3.40;99.90;;;;;;5051110;28;20273;-67
2021/11/09 06:14:17;;;;;;;10.73;9.77;;;3.40;99.90;;;;;;5051180;28;20185;-65
2021/11/09 06:16:43;;;;;;;12.40;10.40;;;3.40;99.90;;;;;;5051291;28;20202;-66
2021/11/09 06:19:09;;;;;;;10.80;10.07;;;3.30;99.90;;;;;;5051045;28;20416;-67
2021/11/09 06:21:35;;;;;;;14.77;10.57;;;3.30;99.90;;;;;;5051316;28;20182;-66
2021/11/09 06:24:00;;;;;;;10.67;9.73;;;3.30;99.90;;;;;;5051063;28;20552;-64
2021/11/09 06:26:27;;;;;;;11.13;10.27;;;3.30;99.90;;;;;;5050876;28;20236;-65
2021/11/09 06:28:57;;;;;;;10.93;10.03;;;3.30;99.90;;;;;;5051460;28;20333;-66
2021/11/09 06:31:24;;;;;;;14.17;9.50;;;3.30;99.90;;;;;;5051225;28;20308;-65
2021/11/09 06:33:50;;;;;;;15.00;9.83;;;3.30;99.90;;;;;;5051223;28;20203;-67
2021/11/09 06:36:15;;;;;;;11.07;10.10;;;3.20;99.90;;;;;;5051287;28;20198;-67
2021/11/09 06:38:41;;;;;;;11.37;10.27;;;3.20;99.90;;;;;;5051506;28;20675;-66
2021/11/09 06:41:07;;;;;;;11.37;10.47;;;3.20;99.90;;;;;;5051031;28;20560;-67
2021/11/09 06:43:33;;;;;;;12.00;10.83;;;3.20;99.90;;;;;;5051687;28;20171;-65
2021/11/09 06:45:58;;;;;;;11.27;10.33;;;3.20;99.90;;;;;;5050837;28;20596;-64
2021/11/09 06:48:25;;;;;;;12.27;11.13;;;3.20;99.90;;;;;;5048496;28;20592;-64
2021/11/09 06:50:52;;;;;;;12.63;10.97;;;3.20;99.90;;;;;;5051009;28;20659;-66
2021/11/09 06:53:18;;;;;;;11.83;10.63;;;3.20;99.90;;;;;;5050845;28;20183;-67
2021/11/09 06:55:44;;;;;;;11.07;10.27;;;3.30;99.90;;;;;;5051589;28;20197;-67
2021/11/09 06:58:10;;;;;;;10.33;9.37;;;3.40;99.90;;;;;;5050944;28;20211;-67
2021/11/09 07:00:37;;;;;;;10.63;9.83;;;3.40;99.90;;;;;;5051341;28;20198;-67
2021/11/09 07:03:02;;;;;;;12.90;9.53;;;3.40;99.90;;;;;;5053741;28;20201;-67
2021/11/09 07:05:28;;;;;;;10.70;9.93;;;3.50;99.90;;;;;;5055242;28;20699;-67
2021/11/09 07:07:54;;;;;;;10.53;9.40;;;3.60;99.90;;;;;;5054864;28;20286;-67
2021/11/09 07:10:20;;;;;;;10.93;10.03;;;3.70;99.90;;;;;;5054619;28;20262;-67
2021/11/09 07:12:46;;;;;;;11.53;10.43;;;3.70;99.90;;;;;;5054857;28;20229;-66
2021/11/09 07:15:14;;;;;;;9.67;8.97;;;3.70;99.90;;;;;;5054933;28;20655;-67
2021/11/09 07:17:40;;;;;;;13.80;9.43;;;3.80;99.90;;;;;;5054274;28;20202;-66
2021/11/09 07:20:11;;;;;;;9.80;9.07;;;3.90;99.90;;;;;;5054134;28;20252;-67
2021/11/09 07:22:37;;;;;;;11.77;9.37;;;4.00;99.90;;;;;;5054772;28;20208;-67
2021/11/09 07:25:03;;;;;;;13.50;10.30;;;4.00;99.90;;;;;;5034544;28;20167;-67
2021/11/09 07:27:29;;;;;;;10.27;9.17;;;4.10;99.90;;;;;;5034484;28;20188;-67
2021/11/09 07:29:56;;;;;;;10.63;9.77;;;4.20;99.90;;;;;;5053255;28;20647;-66
2021/11/09 07:32:22;;;;;;;10.73;9.93;;;4.30;99.90;;;;;;5053950;28;20206;-67
2021/11/09 07:34:47;;;;;;;11.37;10.17;;;4.30;99.90;;;;;;5054195;28;20209;-67
2021/11/09 07:37:13;;;;;;;10.40;9.60;;;4.40;99.90;;;;;;5053564;28;20244;-66
2021/11/09 07:39:40;;;;;;;13.40;10.90;;;4.50;99.90;;;;;;5053758;28;20178;-67
2021/11/09 07:42:06;;;;;;;13.93;11.53;;;4.50;99.90;;;;;;5054048;28;20262;-67
2021/11/09 07:44:32;;;;;;;11.20;10.17;;;4.60;99.90;;;;;;5052570;28;20343;-67
2021/11/09 07:46:57;;;;;;;13.40;11.23;;;4.80;99.90;;;;;;5054104;28;20324;-67
2021/11/09 07:49:23;;;;;;;15.33;10.87;;;5.10;99.90;;;;;;5053391;28;20695;-67
2021/11/09 07:51:50;;;;;;;16.47;10.23;;;5.40;99.90;;;;;;5053892;28;20187;-67
2021/11/09 07:54:19;;;;;;;15.77;11.00;;;5.70;99.90;;;;;;5052194;28;20268;-67
2021/11/09 07:56:46;;;;;;;18.33;10.87;;;6.10;99.90;;;;;;5053409;28;20214;-67
2021/11/09 08:01:59;;;;;;;13.13;10.47;;;6.80;99.90;;;;;;5053681;28;20166;-65
2021/11/09 08:06:56;;;;;;;11.03;9.60;;;7.50;99.90;;;;;;5053563;28;20199;-66
2021/11/09 08:09:31;;;;;;;16.67;10.37;;;7.70;99.90;;;;;;5053855;28;20599;-66
2021/11/09 08:11:59;;;;;;;9.53;8.53;;;7.80;99.90;;;;;;5053385;28;20206;-65
2021/11/09 08:14:25;;;;;;;10.70;9.70;;;8.00;99.90;;;;;;5052990;28;20262;-66
2021/11/09 08:16:51;;;;;;;11.63;9.33;;;8.10;99.90;;;;;;5053001;28;20484;-67
2021/11/09 08:19:18;;;;;;;10.27;8.97;;;8.30;99.90;;;;;;5052662;28;20209;-68
2021/11/09 08:21:45;;;;;;;11.63;9.17;;;8.50;99.90;;;;;;5053699;28;20205;-67
2021/11/09 08:24:13;;;;;;;9.93;8.93;;;8.60;99.90;;;;;;5053105;28;20218;-68
2021/11/09 08:26:39;;;;;;;16.93;9.77;;;8.70;99.90;;;;;;5053227;28;20230;-67
2021/11/09 08:29:06;;;;;;;9.73;8.77;;;8.70;99.90;;;;;;5052667;28;20844;-65
2021/11/09 08:31:34;;;;;;;9.17;8.37;;;8.80;99.90;;;;;;5053001;28;20182;-66
2021/11/09 08:34:02;;;;;;;11.67;9.37;;;8.90;99.90;;;;;;5051872;28;20225;-66
2021/11/09 08:36:31;;;;;;;10.83;9.00;;;9.00;99.90;;;;;;5053010;28;20201;-65
2021/11/09 08:38:58;;;;;;;10.40;9.10;;;9.10;99.90;;;;;;5052508;28;20694;-65
2021/11/09 08:41:27;;;;;;;9.50;8.00;;;9.20;99.90;;;;;;5052797;28;20163;-66
2021/11/09 08:44:20;;;;;;;9.90;7.57;;;9.40;99.90;;;;;;5052900;28;20282;-67
2021/11/09 08:46:52;;;;;;;13.50;8.23;;;9.60;99.90;;;;;;5052027;28;20195;-67
2021/11/09 08:49:19;;;;;;;8.83;7.03;;;9.80;99.90;;;;;;5052716;28;20171;-67
2021/11/09 08:51:49;;;;;;;8.67;6.80;;;10.10;99.90;;;;;;5052601;28;20190;-67
2021/11/09 08:54:17;;;;;;;9.33;7.90;;;10.40;99.90;;;;;;5052642;28;20182;-65
2021/11/09 09:05:04;;;;;;;9.13;6.97;;;11.90;99.90;;;;;;5032763;28;20274;-67
2021/11/09 09:07:30;;;;;;;10.77;6.43;;;12.20;99.90;;;;;;5051949;28;20209;-67
2021/11/09 09:09:57;;;;;;;6.80;6.20;;;12.40;99.90;;;;;;5052021;28;20171;-65
2021/11/09 09:12:24;;;;;;;10.40;6.23;;;12.60;99.90;;;;;;5052037;28;20187;-67
2021/11/09 09:14:51;;;;;;;7.07;6.37;;;12.70;99.90;;;;;;5052403;28;20635;-66
2021/11/09 09:17:17;;;;;;;7.23;6.53;;;13.10;99.90;;;;;;5051746;28;20237;-66
2021/11/09 09:20:32;;;;;;;6.37;5.77;;;13.30;99.90;;;;;;5051891;28;20198;-68
2021/11/09 09:22:37;;;;;;;7.20;6.50;;;13.70;99.90;;;;;;5044297;28;20271;-67
2021/11/09 09:55:15;;;;;;;8.37;6.47;;;15.00;99.90;;;;;;5052689;28;20166;-67
2021/11/09 09:57:41;;;;;;;7.83;7.10;;;15.20;99.90;;;;;;5085675;22;20230;-66
2021/11/09 10:00:08;;;;;;;6.70;6.00;;;15.50;99.90;;;;;;5051020;28;20312;-66
2021/11/09 10:02:44;;;;;;;11.83;6.27;;;15.70;99.90;;;;;;5051588;28;20640;-65
2021/11/09 10:05:12;;;;;;;7.43;6.60;;;16.00;99.90;;;;;;5051261;28;20174;-66
2021/11/09 10:07:40;;;;;;;6.37;5.77;;;16.40;99.90;;;;;;5058056;28;20674;-66
2021/11/09 10:10:11;;;;;;;9.27;6.27;;;16.60;99.90;;;;;;5068184;28;20196;-66
2021/11/09 10:12:45;;;;;;;7.43;6.10;;;16.60;99.90;;;;;;5032989;28;20205;-65
2021/11/09 10:15:16;;;;;;;12.20;6.80;;;16.50;99.90;;;;;;5051409;28;20174;-66
2021/11/09 10:17:53;;;;;;;7.97;6.10;;;16.30;99.90;;;;;;5055077;28;20234;-66
2021/11/09 10:20:21;;;;;;;9.47;6.47;;;16.20;99.90;;;;;;5051155;28;20594;-66
2021/11/09 10:22:52;;;;;;;11.73;6.73;;;16.10;99.90;;;;;;5058147;28;20181;-66
2021/11/09 10:25:20;;;;;;;10.33;6.90;;;16.30;99.90;;;;;;5061360;28;20172;-66
2021/11/09 10:27:50;;;;;;;10.03;7.27;;;16.30;99.90;;;;;;5071132;28;20273;-66
2021/11/09 10:30:26;;;;;;;10.03;7.23;;;16.40;99.90;;;;;;5070966;28;20175;-66
2021/11/09 10:32:53;;;;;;;12.93;6.33;;;16.70;99.90;;;;;;5071242;28;20515;-66
2021/11/09 10:35:20;;;;;;;9.23;6.60;;;17.10;99.90;;;;;;5071301;28;20246;-66
2021/11/09 10:37:58;;;;;;;7.77;6.40;;;17.20;99.90;;;;;;5072975;28;20616;-66
2021/11/09 10:40:30;;;;;;;7.37;6.60;;;17.20;99.90;;;;;;5074644;28;20195;-65
2021/11/09 10:42:59;;;;;;;8.97;6.73;;;17.10;99.90;;;;;;5074612;28;20228;-65
2021/11/09 10:45:27;;;;;;;7.20;6.50;;;17.00;99.90;;;;;;5075206;28;20533;-65
2021/11/09 10:48:01;;;;;;;8.10;6.80;;;17.10;99.90;;;;;;5074244;28;20667;-65
2021/11/09 10:50:36;;;;;;;7.30;6.63;;;17.20;99.90;;;;;;5074702;28;20696;-65
2021/11/09 11:04:01;;;;;;;8.83;6.93;;;17.50;99.90;;;;;;5075187;28;20209;-65
2021/11/09 11:06:29;;;;;;;10.30;6.73;;;17.50;99.90;;;;;;5075241;28;20177;-64
2021/11/09 11:09:02;;;;;;;6.63;6.03;;;17.50;99.90;;;;;;5075115;28;20194;-64
2021/11/09 11:11:32;;;;;;;10.63;7.00;;;17.50;99.90;;;;;;5074941;28;20177;-65
2021/11/09 11:14:09;;;;;;;7.50;6.80;;;17.30;99.90;;;;;;5074611;28;20181;-65
2021/11/09 11:16:38;;;;;;;8.90;7.20;;;17.20;99.90;;;;;;5074675;28;20180;-64
2021/11/09 11:19:04;;;;;;;8.03;7.30;;;17.20;99.90;;;;;;5074104;28;20559;-65
2021/11/09 11:21:30;;;;;;;7.73;7.00;;;17.00;99.90;;;;;;5074458;28;20232;-65
2021/11/09 11:23:57;;;;;;;7.83;7.20;;;17.00;99.90;;;;;;5074586;28;20174;-65
2021/11/09 11:26:23;;;;;;;8.27;7.43;;;17.10;99.90;;;;;;5074318;28;20190;-65
2021/11/09 11:28:52;;;;;;;6.90;6.30;;;17.30;99.90;;;;;;5074143;28;20224;-65
2021/11/09 11:31:19;;;;;;;7.97;6.60;;;17.40;99.90;;;;;;5073965;28;20198;-65
2021/11/09 11:33:45;;;;;;;6.63;6.03;;;17.30;99.90;;;;;;5074361;28;20202;-65
2021/11/09 11:36:11;;;;;;;9.13;6.47;;;17.10;99.90;;;;;;5074029;28;20166;-64
2021/11/09 11:38:46;;;;;;;7.60;6.20;;;17.00;99.90;;;;;;5073079;28;20372;-65
2021/11/09 11:41:12;;;;;;;6.97;6.27;;;17.00;99.90;;;;;;5073555;28;20215;-65
2021/11/09 11:43:46;;;;;;;6.70;6.10;;;16.80;99.90;;;;;;5074108;28;20181;-65
2021/11/09 11:46:36;;;;;;;9.53;6.07;;;16.60;99.90;;;;;;5073827;28;20174;-65
2021/11/09 11:49:07;;;;;;;7.10;6.47;;;16.40;99.90;;;;;;5072664;28;20236;-65
2021/11/09 11:51:36;;;;;;;6.73;6.20;;;16.40;99.90;;;;;;5073979;28;20178;-65
2021/11/09 11:54:05;;;;;;;6.67;5.90;;;16.40;99.90;;;;;;5055839;28;20631;-65
2021/11/09 11:56:39;;;;;;;6.07;5.43;;;16.40;99.90;;;;;;5073835;28;20182;-65
2021/11/09 11:59:25;;;;;;;5.90;5.50;;;16.30;99.90;;;;;;5073189;28;20579;-65
2021/11/09 12:02:04;;;;;;;5.67;5.27;;;16.40;99.90;;;;;;5059678;28;20568;-65
2021/11/09 12:04:39;;;;;;;6.07;5.50;;;16.60;99.90;;;;;;5073679;28;20257;-64
2021/11/09 12:07:09;;;;;;;5.37;5.03;;;16.50;99.90;;;;;;5073495;28;20511;-65
2021/11/09 12:09:38;;;;;;;5.90;5.50;;;16.40;99.90;;;;;;5073431;28;20206;-65
2021/11/09 12:12:19;;;;;;;6.43;5.63;;;16.20;99.90;;;;;;5073459;28;20631;-65
2021/11/09 12:14:51;;;;;;;5.70;5.40;;;16.10;99.90;;;;;;5073404;28;20185;-65
2021/11/09 12:17:35;;;;;;;5.90;5.40;;;16.10;99.90;;;;;;5073139;28;20290;-65
2021/11/09 12:20:05;;;;;;;5.50;5.20;;;16.10;99.90;;;;;;5073047;28;20166;-65
2021/11/09 12:22:52;;;;;;;5.80;5.30;;;16.20;99.90;;;;;;5073370;28;20170;-64
2021/11/09 12:25:33;;;;;;;6.67;5.30;;;16.20;99.90;;;;;;5051600;28;20182;-65
2021/11/09 12:27:59;;;;;;;7.17;5.67;;;16.40;99.90;;;;;;5063469;28;20195;-65
2021/11/09 12:30:37;;;;;;;6.33;5.83;;;16.50;99.90;;;;;;5058524;28;20539;-64
2021/11/09 12:33:15;;;;;;;5.73;5.13;;;16.40;99.90;;;;;;5067373;28;20655;-64
2021/11/09 12:35:45;;;;;;;6.20;5.60;;;16.30;99.90;;;;;;5034579;28;20175;-64
2021/11/09 12:38:32;;;;;;;5.60;5.20;;;16.40;99.90;;;;;;5056690;28;20312;-65
2021/11/09 12:41:00;;;;;;;6.10;5.70;;;16.40;99.90;;;;;;5062750;28;20190;-64
2021/11/09 12:43:31;;;;;;;5.80;5.40;;;16.40;99.90;;;;;;5053065;28;20171;-65
2021/11/09 12:46:33;;;;;;;5.70;5.30;;;16.40;99.90;;;;;;5041522;28;20179;-64
2021/11/09 12:49:02;;;;;;;7.10;5.13;;;16.40;99.90;;;;;;5071137;28;20189;-64
2021/11/09 12:51:34;;;;;;;5.47;5.17;;;16.40;99.90;;;;;;5052631;28;20175;-64
2021/11/09 12:54:12;;;;;;;6.43;5.67;;;16.30;99.90;;;;;;5052996;28;20701;-64
2021/11/09 12:56:39;;;;;;;5.67;5.17;;;16.20;99.90;;;;;;5064324;28;20250;-64
2021/11/09 12:59:27;;;;;;;6.33;5.17;;;16.20;99.90;;;;;;5057790;28;20206;-64
2021/11/09 13:02:00;;;;;;;5.47;5.17;;;16.20;99.90;;;;;;5059567;28;20178;-64
2021/11/09 13:04:32;;;;;;;5.63;5.33;;;16.10;99.90;;;;;;5048889;28;20166;-64
2021/11/09 13:09:47;;;;;;;6.33;5.90;;;16.20;99.90;;;;;;5060472;28;20269;-64
2021/11/09 13:12:13;;;;;;;5.50;5.10;;;16.30;99.90;;;;;;5066843;28;20631;-64
2021/11/09 13:14:41;;;;;;;7.30;5.30;;;16.20;99.90;;;;;;5060228;28;20187;-64
2021/11/09 13:17:18;;;;;;;5.93;5.43;;;16.30;99.90;;;;;;5065655;28;20202;-65
2021/11/09 13:19:45;;;;;;;5.80;5.30;;;16.30;99.90;;;;;;5068883;28;20189;-64
2021/11/09 13:22:17;;;;;;;5.73;5.23;;;16.30;99.90;;;;;;5071858;28;20170;-65
2021/11/09 13:25:01;;;;;;;6.13;5.63;;;16.50;99.90;;;;;;5039729;28;20174;-64
2021/11/09 13:27:53;;;;;;;6.27;5.67;;;16.50;99.90;;;;;;5055080;28;20206;-64
2021/11/09 13:30:25;;;;;;;6.23;5.60;;;16.60;99.90;;;;;;5053667;28;20270;-65
2021/11/09 13:32:56;;;;;;;6.13;5.37;;;16.40;99.90;;;;;;5060184;28;20710;-65
2021/11/09 13:35:25;;;;;;;5.30;5.00;;;16.20;99.90;;;;;;5052027;28;20265;-65
2021/11/09 13:38:11;;;;;;;6.63;6.03;;;16.30;99.90;;;;;;5053413;28;20570;-65
2021/11/09 13:40:41;;;;;;;5.73;5.17;;;16.30;99.90;;;;;;5071445;28;20185;-65
2021/11/09 13:43:09;;;;;;;5.27;4.87;;;16.20;99.90;;;;;;5070322;28;20624;-65
2021/11/09 13:45:35;;;;;;;5.90;5.20;;;16.30;99.90;;;;;;5045938;28;20238;-65
2021/11/09 13:48:13;;;;;;;6.77;5.30;;;16.30;99.90;;;;;;5031875;28;20265;-64
2021/11/09 13:50:39;;;;;;;5.20;4.83;;;16.20;99.90;;;;;;5047070;28;20178;-64
2021/11/09 13:53:05;;;;;;;5.77;5.27;;;16.20;99.90;;;;;;5051640;28;20236;-65
2021/11/09 13:55:36;;;;;;;5.50;5.10;;;16.20;99.90;;;;;;5059003;28;20261;-64
2021/11/09 13:58:02;;;;;;;5.57;5.07;;;16.20;99.90;;;;;;5062914;28;20574;-64
2021/11/09 14:00:35;;;;;;;5.53;5.13;;;16.20;99.90;;;;;;5051169;28;20174;-64
2021/11/09 14:13:41;;;;;;;4.93;4.63;;;16.10;99.90;;;;;;5055733;28;20266;-64
2021/11/09 14:16:19;;;;;;;6.73;5.30;;;16.00;99.90;;;;;;5062444;28;20174;-65
2021/11/09 14:18:52;;;;;;;5.73;5.23;;;16.00;99.90;;;;;;5058613;28;20206;-64
2021/11/09 14:21:30;;;;;;;6.37;5.97;;;15.90;99.90;;;;;;5051039;28;20189;-64
2021/11/09 14:23:56;;;;;;;5.73;5.33;;;15.90;99.90;;;;;;5062263;28;20180;-64
2021/11/09 14:26:24;;;;;;;5.63;5.23;;;15.70;99.90;;;;;;5058174;28;20170;-64
2021/11/09 14:28:54;;;;;;;5.60;5.23;;;15.40;99.90;;;;;;5057286;28;20214;-64
2021/11/09 14:31:27;;;;;;;6.20;5.70;;;15.30;99.90;;;;;;5067114;28;20182;-64
2021/11/09 14:34:14;;;;;;;6.87;5.20;;;15.20;99.90;;;;;;5065157;28;20581;-64
2021/11/09 14:36:41;;;;;;;5.93;5.50;;;15.10;99.90;;;;;;5070400;28;20174;-65
2021/11/09 14:39:15;;;;;;;6.00;5.40;;;15.00;99.90;;;;;;5052892;28;20198;-64
2021/11/09 14:42:09;;;;;;;6.37;5.87;;;15.00;99.90;;;;;;5069355;28;20274;-64
2021/11/09 14:48:19;;;;;;;6.50;6.00;;;14.90;99.90;;;;;;4968924;28;20205;-65
2021/11/09 14:53:21;;;;;;;6.00;5.60;;;14.80;99.90;;;;;;5010986;28;20180;-64
2021/11/09 14:55:52;;;;;;;6.10;5.70;;;14.80;99.90;;;;;;5034361;28;20546;-64
2021/11/09 14:58:31;;;;;;;6.53;5.80;;;14.70;99.90;;;;;;5061246;28;20260;-64
2021/11/09 15:01:05;;;;;;;6.40;5.80;;;14.40;99.90;;;;;;5060663;28;20183;-64
2021/11/09 15:03:36;;;;;;;6.10;5.50;;;14.20;99.90;;;;;;5050933;28;20254;-64
2021/11/09 15:06:07;;;;;;;6.20;5.70;;;14.00;99.90;;;;;;5055934;28;20203;-64
2021/11/09 15:08:58;;;;;;;7.87;5.90;;;13.70;99.90;;;;;;5055725;28;20198;-64
2021/11/09 15:11:42;;;;;;;6.57;5.93;;;13.40;99.90;;;;;;5070201;28;20577;-64
2021/11/09 15:25:25;;;;;;;6.70;6.10;;;12.10;99.90;;;;;;5055381;28;20190;-65
2021/11/09 15:30:41;;;;;;;6.77;6.10;;;11.70;99.90;;;;;;5070282;28;20201;-65
2021/11/09 15:33:15;;;;;;;7.17;6.47;;;11.50;99.90;;;;;;5056087;28;20270;-65
2021/11/09 15:38:09;;;;;;;6.50;5.90;;;11.30;99.90;;;;;;5054536;28;20202;-65
2021/11/09 15:40:35;;;;;;;5.90;5.50;;;11.20;99.90;;;;;;5065363;28;20586;-65
2021/11/09 15:43:01;;;;;;;6.60;6.00;;;11.10;99.90;;;;;;5053650;28;20221;-65
2021/11/09 15:45:28;;;;;;;6.40;5.80;;;11.00;99.90;;;;;;5053973;28;20175;-65
2021/11/09 15:47:53;;;;;;;6.50;6.00;;;10.90;99.90;;;;;;5071838;28;20259;-65
2021/11/09 15:50:19;;;;;;;6.53;5.93;;;10.80;99.90;;;;;;5073462;28;20182;-65
2021/11/09 15:52:45;;;;;;;6.20;5.70;;;10.70;99.90;;;;;;5057091;28;20202;-65
2021/11/09 15:55:10;;;;;;;6.50;6.10;;;10.60;99.90;;;;;;5061570;28;20185;-65
2021/11/09 15:57:37;;;;;;;6.30;5.90;;;10.50;99.90;;;;;;5095034;22;20298;-65
2021/11/09 16:00:07;;;;;;;6.10;5.60;;;10.50;99.90;;;;;;5059470;28;20179;-65